Terminal Aerodrome Forecast
Issued by NWS Quad Cities IA IL

Home | Current Version | Previous Version | Text Only | Print | Product List | Glossary On
Versions: 1 2 3 4 5 6 7 8 9 10 11 12 13 14 15 16 17 18
237
FTUS43 KDVN 172333
TAFMLI
TAF
KMLI 172333Z 1800/1824 VRB03KT P6SM -RA OVC040
     FM180100 VRB02KT 5SM -DZ BR OVC025
     FM180300 VRB02KT 1 1/2SM -DZ BR BKN008 OVC015
     FM180700 26006KT 3SM BR OVC012
     FM181800 22011KT P6SM SCT020 SCT250=

USA.gov is the U.S. government's official web portal to all federal, state and local government web resources and services.